createdAt,value
2022-10-11T00:01:02.756Z,3.20
2022-10-11T00:03:30.918Z,3.47
2022-10-11T00:05:58.000Z,3.23
2022-10-11T00:08:27.948Z,3.07
2022-10-11T00:11:06.515Z,3.73
2022-10-11T00:13:34.289Z,2.90
2022-10-11T00:16:14.255Z,3.50
2022-10-11T00:18:42.108Z,4.07
2022-10-11T00:21:13.654Z,3.40
2022-10-11T00:23:43.338Z,3.27
2022-10-11T00:26:13.965Z,3.63
2022-10-11T00:28:45.784Z,3.90
2022-10-11T00:31:16.266Z,3.37
2022-10-11T00:33:43.400Z,3.30
2022-10-11T00:36:17.440Z,3.87
2022-10-11T00:38:45.532Z,3.43
2022-10-11T00:41:15.402Z,3.10
2022-10-11T00:43:44.950Z,3.93
2022-10-11T00:46:30.828Z,3.40
2022-10-11T00:49:05.886Z,3.77
2022-10-11T00:51:53.773Z,3.30
2022-10-11T00:54:26.045Z,4.57
2022-10-11T00:57:07.580Z,4.10
2022-10-11T00:59:41.517Z,3.30
2022-10-11T01:02:10.436Z,3.03
2022-10-11T01:04:40.566Z,3.40
2022-10-11T01:07:11.294Z,3.73
2022-10-11T01:09:40.421Z,3.67
2022-10-11T01:12:23.279Z,3.50
2022-10-11T01:15:00.060Z,4.00
2022-10-11T01:17:59.205Z,3.40
2022-10-11T01:20:57.242Z,3.60
2022-10-11T01:24:10.573Z,3.77
2022-10-11T01:27:01.509Z,3.60
2022-10-11T01:29:47.172Z,4.43
2022-10-11T01:32:24.884Z,3.50
2022-10-11T01:35:32.736Z,4.07
2022-10-11T01:38:46.962Z,4.27
2022-10-11T01:41:39.289Z,3.37
2022-10-11T01:44:13.524Z,4.60
2022-10-11T01:46:41.371Z,3.53
2022-10-11T01:49:09.661Z,4.00
2022-10-11T01:51:46.371Z,3.50
2022-10-11T01:54:44.133Z,3.90
2022-10-11T01:57:46.980Z,3.50
2022-10-11T02:00:21.877Z,3.63
2022-10-11T02:03:16.179Z,3.90
2022-10-11T02:06:14.686Z,3.90
2022-10-11T02:09:08.285Z,3.20
2022-10-11T02:11:39.365Z,3.67
2022-10-11T02:14:14.793Z,3.50
2022-10-11T02:16:58.571Z,3.57
2022-10-11T02:19:35.541Z,4.50
2022-10-11T02:22:16.029Z,4.30
2022-10-11T02:24:50.882Z,3.73
2022-10-11T02:27:26.008Z,3.60
2022-10-11T02:29:58.462Z,3.60
2022-10-11T02:32:29.126Z,3.67
2022-10-11T02:35:01.070Z,3.43
2022-10-11T02:37:50.943Z,4.10
2022-10-11T02:40:40.205Z,4.57
2022-10-11T02:43:24.627Z,4.70
2022-10-11T02:45:58.677Z,4.47
2022-10-11T02:48:31.539Z,3.43
2022-10-11T02:51:03.908Z,4.07
2022-10-11T02:53:31.089Z,3.40
2022-10-11T02:56:00.550Z,3.00
2022-10-11T02:58:29.525Z,3.50
2022-10-11T03:00:56.426Z,3.47
2022-10-11T03:03:25.347Z,3.23
2022-10-11T03:06:00.045Z,3.27
2022-10-11T03:08:29.630Z,2.83
2022-10-11T03:10:58.619Z,3.70
2022-10-11T03:13:28.356Z,3.50
2022-10-11T03:16:03.239Z,3.97
2022-10-11T03:18:31.492Z,3.43
2022-10-11T03:21:02.956Z,3.70
2022-10-11T03:23:32.839Z,3.37
2022-10-11T03:25:59.671Z,3.27
2022-10-11T03:28:26.760Z,3.77
2022-10-11T03:30:57.043Z,3.07
2022-10-11T03:33:23.858Z,3.10
2022-10-11T03:35:50.758Z,3.67
2022-10-11T03:38:21.935Z,3.13
2022-10-11T03:40:51.880Z,3.87
2022-10-11T03:43:23.956Z,3.60
2022-10-11T03:45:50.795Z,4.00
2022-10-11T03:48:17.587Z,3.70
2022-10-11T03:50:51.280Z,3.27
2022-10-11T03:53:18.097Z,3.60
2022-10-11T03:55:45.450Z,3.90
2022-10-11T03:58:15.035Z,3.27
2022-10-11T04:00:43.359Z,3.23
2022-10-11T04:03:10.205Z,4.70
2022-10-11T04:05:39.347Z,3.93
2022-10-11T04:08:12.107Z,3.47
2022-10-11T04:10:40.101Z,3.87
2022-10-11T04:13:07.436Z,3.40
2022-10-11T04:15:34.457Z,3.07
2022-10-11T04:18:04.667Z,2.93
2022-10-11T04:20:31.717Z,4.13
2022-10-11T04:23:01.208Z,3.90
2022-10-11T04:25:30.674Z,2.90
2022-10-11T04:28:00.643Z,4.70
2022-10-11T04:30:33.992Z,3.33
2022-10-11T04:33:01.023Z,3.20
2022-10-11T04:35:31.417Z,3.83
2022-10-11T04:38:00.865Z,3.27
2022-10-11T04:40:27.772Z,3.50
2022-10-11T04:43:01.930Z,3.30
2022-10-11T04:45:28.895Z,3.80
2022-10-11T04:47:58.230Z,2.77
2022-10-11T04:50:26.371Z,3.63
2022-10-11T04:52:58.262Z,2.80
2022-10-11T04:55:25.180Z,3.50
2022-10-11T04:57:52.065Z,3.40
2022-10-11T05:00:21.957Z,3.37
2022-10-11T05:02:48.839Z,3.87
2022-10-11T05:05:17.713Z,3.30
2022-10-11T05:07:46.848Z,4.40
2022-10-11T05:10:13.811Z,3.77
2022-10-11T05:12:40.716Z,3.87
2022-10-11T05:15:08.779Z,4.90
2022-10-11T05:17:35.955Z,3.93
2022-10-11T05:20:02.819Z,4.20
2022-10-11T05:22:29.702Z,5.80
2022-10-11T05:24:56.554Z,4.93
2022-10-11T05:27:25.924Z,4.60
2022-10-11T05:29:55.778Z,4.63
2022-10-11T05:32:25.630Z,4.90
2022-10-11T05:34:54.597Z,4.43
2022-10-11T05:37:24.345Z,4.40
2022-10-11T05:39:51.202Z,4.37
2022-10-11T05:42:18.029Z,4.50
2022-10-11T05:44:44.812Z,4.60
2022-10-11T05:47:14.679Z,4.47
2022-10-11T05:49:41.478Z,4.00
2022-10-11T05:52:10.411Z,4.50
2022-10-11T05:54:37.195Z,4.43
2022-10-11T05:57:04.210Z,4.87
2022-10-11T05:59:31.641Z,4.90
2022-10-11T06:01:58.527Z,4.73
2022-10-11T06:04:25.393Z,5.67
2022-10-11T06:06:55.251Z,3.80
2022-10-11T06:09:24.295Z,5.00
2022-10-11T06:11:51.101Z,3.57
2022-10-11T06:14:20.296Z,4.50
2022-10-11T06:16:47.175Z,3.87
2022-10-11T06:19:16.956Z,4.23
2022-10-11T06:21:46.698Z,4.50
2022-10-11T06:24:16.170Z,3.77
2022-10-11T06:26:54.475Z,4.00
2022-10-11T06:29:22.503Z,3.70
2022-10-11T06:31:49.631Z,4.07
2022-10-11T06:34:16.574Z,4.43
2022-10-11T06:36:45.995Z,3.60
2022-10-11T06:39:15.341Z,4.33
2022-10-11T06:41:46.707Z,3.57
2022-10-11T06:44:15.032Z,4.60
2022-10-11T06:46:41.904Z,4.03
2022-10-11T06:49:08.769Z,3.43
2022-10-11T06:51:35.750Z,4.03
2022-10-11T06:54:03.440Z,3.53
2022-10-11T06:56:31.789Z,3.87
2022-10-11T06:58:59.803Z,4.87
2022-10-11T07:01:27.393Z,3.80
2022-10-11T07:03:56.028Z,3.70
2022-10-11T07:06:27.045Z,4.00
2022-10-11T07:08:57.443Z,3.93
2022-10-11T07:11:28.010Z,3.33
2022-10-11T07:13:58.779Z,3.17
2022-10-11T07:16:26.684Z,3.73
2022-10-11T07:19:00.184Z,3.10
2022-10-11T07:21:29.524Z,3.20
2022-10-11T07:24:00.821Z,4.17
2022-10-11T07:26:32.418Z,3.43
2022-10-11T07:29:04.460Z,3.03
2022-10-11T07:31:31.841Z,3.00
2022-10-11T07:33:58.801Z,4.67
2022-10-11T07:36:26.109Z,3.00
2022-10-11T07:38:56.023Z,3.50
2022-10-11T07:41:24.935Z,3.17
2022-10-11T07:43:52.066Z,4.13
2022-10-11T07:46:21.173Z,3.53
2022-10-11T07:48:50.295Z,3.50
2022-10-11T07:51:21.521Z,3.10
2022-10-11T07:53:55.398Z,3.23
2022-10-11T07:56:29.904Z,3.33
2022-10-11T07:59:03.486Z,3.23
2022-10-11T08:01:33.986Z,3.47
2022-10-11T08:04:00.989Z,2.93
2022-10-11T08:06:32.428Z,3.30
2022-10-11T08:09:01.070Z,4.00
2022-10-11T08:11:35.090Z,2.83
2022-10-11T08:14:08.700Z,4.00
2022-10-11T08:16:37.607Z,3.87
2022-10-11T08:19:06.120Z,5.20
2022-10-11T08:21:35.990Z,4.27
2022-10-11T08:24:04.443Z,3.53
2022-10-11T08:26:37.131Z,3.10
2022-10-11T08:29:05.048Z,2.77
2022-10-11T08:31:33.971Z,4.10
2022-10-11T08:34:01.195Z,3.73
2022-10-11T08:36:28.060Z,2.90
2022-10-11T08:38:54.877Z,3.57
2022-10-11T08:41:43.315Z,3.00
2022-10-11T08:44:58.690Z,3.80
2022-10-11T08:47:38.022Z,3.03
2022-10-11T08:50:17.856Z,3.37
2022-10-11T08:53:06.987Z,2.90
2022-10-11T08:55:50.940Z,3.00
2022-10-11T08:58:24.632Z,2.97
2022-10-11T09:00:58.612Z,2.80
2022-10-11T09:03:46.802Z,3.63
2022-10-11T09:06:43.960Z,2.70
2022-10-11T09:09:24.612Z,2.80
2022-10-11T09:12:19.949Z,3.20
2022-10-11T09:15:14.615Z,3.43
2022-10-11T09:18:15.928Z,3.83
2022-10-11T09:21:00.904Z,3.20
2022-10-11T09:24:06.478Z,3.30
2022-10-11T09:26:50.017Z,3.03
2022-10-11T09:29:40.419Z,2.70
2022-10-11T09:32:16.291Z,3.13
2022-10-11T09:34:45.990Z,2.40
2022-10-11T09:37:38.479Z,2.80
2022-10-11T09:40:35.985Z,2.83
2022-10-11T09:43:02.832Z,3.13
2022-10-11T09:45:29.734Z,2.93
2022-10-11T09:48:03.059Z,2.80
2022-10-11T09:50:32.850Z,2.60
2022-10-11T09:53:07.804Z,3.80
2022-10-11T09:55:53.477Z,2.77
2022-10-11T09:58:26.274Z,3.87
2022-10-11T10:01:11.942Z,3.00
2022-10-11T10:03:46.136Z,3.37
2022-10-11T10:06:29.319Z,3.30
2022-10-11T10:09:30.134Z,2.40
2022-10-11T10:11:57.903Z,3.00
2022-10-11T10:14:29.087Z,2.63
2022-10-11T10:17:04.750Z,3.10
2022-10-11T10:19:48.845Z,3.33
2022-10-11T10:22:28.490Z,2.60
2022-10-11T10:24:57.629Z,2.50
2022-10-11T10:27:27.384Z,2.77
2022-10-11T10:30:09.808Z,2.63
2022-10-11T10:32:52.197Z,2.93
2022-10-11T10:35:40.874Z,3.23
2022-10-11T10:38:16.602Z,2.77
2022-10-11T10:41:01.914Z,2.83
2022-10-11T10:43:34.273Z,3.50
2022-10-11T10:46:30.676Z,3.20
2022-10-11T10:52:24.076Z,3.20
2022-10-11T10:55:06.812Z,2.80
2022-10-11T10:57:37.012Z,2.80
2022-10-11T11:00:24.747Z,2.93
2022-10-11T11:02:57.854Z,2.90
2022-10-11T11:05:59.519Z,3.50
2022-10-11T11:08:32.412Z,4.37
2022-10-11T11:11:42.395Z,3.00
2022-10-11T11:14:44.015Z,3.10
2022-10-11T11:17:50.386Z,3.10
2022-10-11T11:20:51.360Z,3.30
2022-10-11T11:23:48.311Z,2.70
2022-10-11T11:26:35.285Z,3.07
2022-10-11T11:29:33.499Z,2.67
2022-10-11T11:32:18.650Z,3.60
2022-10-11T11:35:32.285Z,2.90
2022-10-11T11:38:28.557Z,2.87
2022-10-11T11:41:02.759Z,2.60
2022-10-11T11:43:38.864Z,3.77
2022-10-11T11:46:17.363Z,2.60
2022-10-11T11:48:44.959Z,2.90
2022-10-11T11:51:21.717Z,3.87
2022-10-11T11:54:05.042Z,2.73
2022-10-11T11:56:53.489Z,2.90
2022-10-11T11:59:45.870Z,2.50
2022-10-11T12:02:45.278Z,3.40
2022-10-11T12:05:17.095Z,2.63
2022-10-11T12:07:58.875Z,3.60
2022-10-11T12:10:56.089Z,2.83
2022-10-11T12:13:36.367Z,3.17
2022-10-11T12:16:14.207Z,3.00
2022-10-11T12:18:51.319Z,3.03
2022-10-11T12:21:43.945Z,2.90
2022-10-11T12:24:23.377Z,2.60
2022-10-11T12:26:56.666Z,3.60
2022-10-11T12:29:48.318Z,3.60
2022-10-11T12:32:38.547Z,4.10
2022-10-11T12:35:30.700Z,2.97
2022-10-11T12:38:31.364Z,3.10
2022-10-11T12:41:13.297Z,3.07
2022-10-11T12:43:53.282Z,3.50
2022-10-11T12:46:29.267Z,3.20
2022-10-11T12:49:29.694Z,3.63
2022-10-11T12:52:08.453Z,4.00
2022-10-11T12:55:13.074Z,2.87
2022-10-11T12:58:17.402Z,3.50
2022-10-11T13:01:04.217Z,3.17
2022-10-11T13:03:42.835Z,2.80
2022-10-11T13:06:27.940Z,3.23
2022-10-11T13:09:21.333Z,3.80
2022-10-11T13:12:06.767Z,2.93
2022-10-11T13:14:42.901Z,3.60
2022-10-11T13:17:32.346Z,3.90
2022-10-11T13:20:18.171Z,4.20
2022-10-11T13:22:50.331Z,3.40
2022-10-11T13:25:31.315Z,3.20
2022-10-11T13:28:01.195Z,3.30
2022-10-11T13:30:36.382Z,3.10
2022-10-11T13:33:17.514Z,3.00
2022-10-11T13:35:47.447Z,4.10
2022-10-11T13:38:30.653Z,3.30
2022-10-11T13:41:02.308Z,3.97
2022-10-11T13:43:33.465Z,3.67
2022-10-11T13:46:05.253Z,3.13
2022-10-11T13:48:39.784Z,3.50
2022-10-11T13:51:16.881Z,3.57
2022-10-11T13:54:11.724Z,3.20
2022-10-11T13:56:50.937Z,2.47
2022-10-11T13:59:25.632Z,2.60
2022-10-11T14:02:00.001Z,3.63
2022-10-11T14:04:29.947Z,3.03
2022-10-11T14:07:03.165Z,3.60
2022-10-11T14:09:39.376Z,4.60
2022-10-11T14:12:44.424Z,3.90
2022-10-11T14:15:31.793Z,3.30
2022-10-11T14:18:01.859Z,3.40
2022-10-11T14:20:42.609Z,3.03
2022-10-11T14:23:14.251Z,2.93
2022-10-11T14:25:44.183Z,3.30
2022-10-11T14:28:13.444Z,3.50
2022-10-11T14:30:44.310Z,3.30
2022-10-11T14:33:14.278Z,3.60
2022-10-11T14:35:43.307Z,3.80
2022-10-11T14:38:15.031Z,5.47
2022-10-11T14:40:44.135Z,2.70
2022-10-11T14:43:13.469Z,4.10
2022-10-11T14:46:24.173Z,5.10
2022-10-11T14:48:56.012Z,3.87
2022-10-11T14:51:33.913Z,3.93
2022-10-11T14:54:00.804Z,3.73
2022-10-11T14:56:27.626Z,2.80
2022-10-11T14:58:56.811Z,3.80
2022-10-11T15:01:23.761Z,2.90
2022-10-11T15:03:50.819Z,3.47
2022-10-11T15:06:29.618Z,2.80
2022-10-11T15:08:56.577Z,3.13
2022-10-11T15:11:24.136Z,3.30
2022-10-11T15:13:55.794Z,3.67
2022-10-11T15:16:22.960Z,3.30
2022-10-11T15:18:55.014Z,3.83
2022-10-11T15:21:30.262Z,3.47
2022-10-11T15:23:57.195Z,3.70
2022-10-11T15:26:29.165Z,4.33
2022-10-11T15:28:57.697Z,3.30
2022-10-11T15:31:24.605Z,3.77
2022-10-11T15:33:54.275Z,4.70
2022-10-11T15:36:22.862Z,3.77
2022-10-11T15:38:52.294Z,4.37
2022-10-11T15:41:20.106Z,3.87
2022-10-11T15:43:50.596Z,4.20
2022-10-11T15:46:25.079Z,4.00
2022-10-11T15:48:54.628Z,4.03
2022-10-11T15:51:21.541Z,3.73
2022-10-11T15:53:51.397Z,3.83
2022-10-11T15:56:19.558Z,4.00
2022-10-11T15:58:46.528Z,3.70
2022-10-11T16:01:18.113Z,3.70
2022-10-11T16:03:49.649Z,4.60
2022-10-11T16:06:18.382Z,4.20
2022-10-11T16:08:48.066Z,4.50
2022-10-11T16:11:15.050Z,4.43
2022-10-11T16:13:47.598Z,4.10
2022-10-11T16:16:14.462Z,5.30
2022-10-11T16:18:41.309Z,4.57
2022-10-11T16:21:15.422Z,5.23
2022-10-11T16:23:44.714Z,4.00
2022-10-11T16:26:16.316Z,4.60
2022-10-11T16:28:43.900Z,5.83
2022-10-11T16:31:20.739Z,4.27
2022-10-11T16:33:47.901Z,5.40
2022-10-11T16:36:40.066Z,5.13
2022-10-11T16:39:18.300Z,5.93
2022-10-11T16:41:46.102Z,5.50
2022-10-11T16:44:16.759Z,4.90
2022-10-11T16:46:48.247Z,4.77
2022-10-11T16:49:20.138Z,4.50
2022-10-11T16:51:47.187Z,6.27
2022-10-11T16:54:20.427Z,8.97
2022-10-11T16:56:50.309Z,7.50
2022-10-11T16:59:17.558Z,7.07
2022-10-11T17:01:45.182Z,7.80
2022-10-11T17:04:13.056Z,11.90
2022-10-11T17:06:41.343Z,12.30
2022-10-11T17:09:11.887Z,11.60
2022-10-11T17:11:44.278Z,12.10
2022-10-11T17:14:14.532Z,11.53
2022-10-11T17:16:41.710Z,12.30
2022-10-11T17:19:13.769Z,9.20
2022-10-11T17:21:43.675Z,8.17
2022-10-11T17:24:12.788Z,7.23
2022-10-11T17:26:39.646Z,10.47
2022-10-11T17:29:06.580Z,8.17
2022-10-11T17:31:33.508Z,7.47
2022-10-11T17:34:00.904Z,6.63
2022-10-11T17:36:36.139Z,7.93
2022-10-11T17:39:10.118Z,8.00
2022-10-11T17:41:38.142Z,7.90
2022-10-11T17:44:05.498Z,7.67
2022-10-11T17:46:32.832Z,6.73
2022-10-11T17:49:01.915Z,6.20
2022-10-11T17:51:32.082Z,6.70
2022-10-11T17:53:58.982Z,7.20
2022-10-11T17:56:32.422Z,5.37
2022-10-11T17:59:06.635Z,4.97
2022-10-11T18:01:36.097Z,6.10
2022-10-11T18:04:06.231Z,6.37
2022-10-11T18:06:39.432Z,6.30
2022-10-11T18:09:07.215Z,6.23
2022-10-11T18:11:34.367Z,7.00
2022-10-11T18:14:01.690Z,6.33
2022-10-11T18:16:30.380Z,7.47
2022-10-11T18:18:58.590Z,7.37
2022-10-11T18:21:31.199Z,7.37
2022-10-11T18:24:11.433Z,7.70
2022-10-11T18:26:41.362Z,7.53
2022-10-11T18:29:08.799Z,6.40
2022-10-11T18:31:35.825Z,7.20
2022-10-11T18:34:06.694Z,7.30
2022-10-11T18:36:36.637Z,7.10
2022-10-11T18:39:10.443Z,7.33
2022-10-11T18:41:39.274Z,6.20
2022-10-11T18:44:09.264Z,7.37
2022-10-11T18:46:38.685Z,6.73
2022-10-11T18:49:07.757Z,8.50
2022-10-11T18:51:40.479Z,7.33
2022-10-11T18:54:10.083Z,7.93
2022-10-11T18:56:39.644Z,8.40
2022-10-11T18:59:07.165Z,7.13
2022-10-11T19:01:44.918Z,8.20
2022-10-11T19:04:18.661Z,7.83
2022-10-11T19:06:48.622Z,8.20
2022-10-11T19:09:26.088Z,7.40
2022-10-11T19:11:55.639Z,6.70
2022-10-11T19:14:30.764Z,7.13
2022-10-11T19:16:58.184Z,8.13
2022-10-11T19:19:29.762Z,8.67
2022-10-11T19:21:56.765Z,8.93
2022-10-11T19:24:27.428Z,8.50
2022-10-11T19:27:02.065Z,7.87
2022-10-11T19:29:30.461Z,10.23
2022-10-11T19:32:03.527Z,10.83
2022-10-11T19:34:31.655Z,8.83
2022-10-11T19:37:01.019Z,8.27
2022-10-11T19:39:29.537Z,9.00
2022-10-11T19:41:56.551Z,7.40
2022-10-11T19:44:34.466Z,7.10
2022-10-11T19:47:05.354Z,5.73
2022-10-11T19:49:32.802Z,6.20
2022-10-11T19:52:01.056Z,6.10
2022-10-11T19:54:28.275Z,5.73
2022-10-11T19:56:55.160Z,5.63
2022-10-11T19:59:22.034Z,4.93
2022-10-11T20:01:52.767Z,5.50
2022-10-11T20:07:11.451Z,5.03
2022-10-11T20:09:38.337Z,5.43
2022-10-11T20:12:05.691Z,5.30
2022-10-11T20:14:37.203Z,5.03
2022-10-11T20:17:04.074Z,5.60
2022-10-11T20:19:31.571Z,6.20
2022-10-11T20:22:01.888Z,5.97
2022-10-11T20:24:34.226Z,5.77
2022-10-11T20:27:05.501Z,6.10
2022-10-11T20:29:32.804Z,5.50
2022-10-11T20:31:59.713Z,6.17
2022-10-11T20:34:29.096Z,5.90
2022-10-11T20:36:55.918Z,5.57
2022-10-11T20:39:23.690Z,5.67
2022-10-11T20:41:50.609Z,5.30
2022-10-11T20:44:17.904Z,5.50
2022-10-11T20:46:47.143Z,7.50
2022-10-11T20:49:19.926Z,5.97
2022-10-11T20:51:46.949Z,5.93
2022-10-11T20:54:13.922Z,6.37
2022-10-11T20:56:41.191Z,6.30
2022-10-11T20:59:13.429Z,6.93
2022-10-11T21:01:46.220Z,8.20
2022-10-11T21:04:21.802Z,6.83
2022-10-11T21:06:48.941Z,6.83
2022-10-11T21:09:19.097Z,7.83
2022-10-11T21:11:48.530Z,7.20
2022-10-11T21:14:15.551Z,6.83
2022-10-11T21:16:42.400Z,7.03
2022-10-11T21:19:15.292Z,7.60
2022-10-11T21:21:42.921Z,6.60
2022-10-11T21:24:10.267Z,5.37
2022-10-11T21:26:37.278Z,6.80
2022-10-11T21:29:04.720Z,6.00
2022-10-11T21:31:34.374Z,7.27
2022-10-11T21:34:02.370Z,6.40
2022-10-11T21:36:33.795Z,6.17
2022-10-11T21:39:00.686Z,5.93
2022-10-11T21:41:31.135Z,7.10
2022-10-11T21:44:01.308Z,7.80
2022-10-11T21:47:04.868Z,6.73
2022-10-11T21:49:23.349Z,7.40
2022-10-11T21:51:50.391Z,6.77
2022-10-11T21:54:19.985Z,7.27
2022-10-11T21:56:46.944Z,6.20
2022-10-11T21:59:18.477Z,7.10
2022-10-11T22:01:45.428Z,5.40
2022-10-11T22:04:12.739Z,8.00
2022-10-11T22:06:40.011Z,6.50
2022-10-11T22:09:08.747Z,6.80
2022-10-11T22:11:38.429Z,6.53
2022-10-11T22:14:05.323Z,6.47
2022-10-11T22:16:36.020Z,7.23
2022-10-11T22:19:03.365Z,7.37
2022-10-11T22:21:32.471Z,6.27
2022-10-11T22:23:59.646Z,7.00
2022-10-11T22:26:34.666Z,6.60
2022-10-11T22:29:01.791Z,6.37
2022-10-11T22:31:29.800Z,7.00
2022-10-11T22:33:59.715Z,7.10
2022-10-11T22:36:28.170Z,5.90
2022-10-11T22:38:54.976Z,6.67
2022-10-11T22:41:24.084Z,6.23
2022-10-11T22:43:53.001Z,6.47
2022-10-11T22:46:19.885Z,6.13
2022-10-11T22:48:46.757Z,7.00
2022-10-11T22:51:14.407Z,6.67
2022-10-11T22:53:41.339Z,6.30
2022-10-11T22:56:08.923Z,6.80
2022-10-11T22:58:38.362Z,6.00
2022-10-11T23:01:14.933Z,6.43
2022-10-11T23:03:42.570Z,6.63
2022-10-11T23:06:12.797Z,6.10
2022-10-11T23:08:39.661Z,7.67
2022-10-11T23:11:10.495Z,6.20
2022-10-11T23:13:37.608Z,5.77
2022-10-11T23:16:10.654Z,7.17
2022-10-11T23:18:40.247Z,6.57
2022-10-11T23:21:07.990Z,6.50
2022-10-11T23:23:39.578Z,6.53
2022-10-11T23:26:15.489Z,6.53
2022-10-11T23:28:46.373Z,6.13
2022-10-11T23:31:17.209Z,6.30
2022-10-11T23:33:47.904Z,5.33
2022-10-11T23:36:24.018Z,6.17
2022-10-11T23:38:58.606Z,5.60
2022-10-11T23:41:28.096Z,6.47
2022-10-11T23:43:55.153Z,6.50
2022-10-11T23:46:24.884Z,6.43
2022-10-11T23:48:56.579Z,5.73
2022-10-11T23:51:23.443Z,6.40
2022-10-11T23:53:53.083Z,4.43
2022-10-11T23:56:20.052Z,5.87
2022-10-11T23:58:49.111Z,5.27
